Terminal Aerodrome Forecast
Issued by NWS

Home | Current Version | Previous Version | Text Only | Print | Product List | Glossary On
Versions: 1 2 3 4 5 6 7 8 9 10 11 12 13 14 15 16 17 18 19 20
596
FTUS44 KCRP 301759 CCA
TAFLRD
TAF COR
KLRD 301759Z 3018/3118 14014G20KT P6SM SCT060
     FM310700 14008KT P6SM FEW014
     FM311400 15013KT P6SM SCT030 SCT040=

USA.gov is the U.S. government's official web portal to all federal, state and local government web resources and services.